Time,TemperatureF,DewpointF,PressureIn,WindDirection,WindDirectionDegrees,WindSpeedMPH,WindSpeedGustMPH,Humidity,HourlyPrecipIn,Conditions,Clouds,dailyrainin,SoftwareType,DateUTC
2013-11-09 00:02:00,57.0,47.7,30.17,SE,142,4.6,4.6,71,0.00,CLR,,0.00,WeatherDisplay:10.37,2013-11-09 06:02:00,
2013-11-09 00:07:00,57.0,47.7,30.17,SE,138,3.5,3.6,71,0.00,CLR,,0.00,WeatherDisplay:10.37,2013-11-09 06:07:00,
2013-11-09 00:12:00,57.0,47.3,30.17,ESE,122,4.6,5.3,70,0.00,CLR,,0.00,WeatherDisplay:10.37,2013-11-09 06:12:00,
2013-11-09 00:17:00,57.0,46.9,30.17,SE,128,5.8,5.8,69,0.00,CLR,,0.00,WeatherDisplay:10.37,2013-11-09 06:17:00,
2013-11-09 00:22:00,57.0,47.3,30.17,SE,131,3.5,3.5,70,0.00,CLR,,0.00,WeatherDisplay:10.37,2013-11-09 06:22:00,
2013-11-09 00:27:00,57.0,46.9,30.16,ESE,115,4.6,4.6,69,0.00,CLR,,0.00,WeatherDisplay:10.37,2013-11-09 06:27:00,
2013-11-09 00:32:00,57.0,46.9,30.16,ESE,119,4.6,4.6,69,0.00,CLR,,0.00,WeatherDisplay:10.37,2013-11-09 06:32:00,
2013-11-09 00:37:00,57.0,46.9,30.16,ESE,122,4.6,4.6,69,0.00,CLR,,0.00,WeatherDisplay:10.37,2013-11-09 06:37:00,
2013-11-09 00:42:00,56.9,46.8,30.16,SE,142,4.6,4.6,69,0.00,CLR,,0.00,WeatherDisplay:10.37,2013-11-09 06:42:00,
2013-11-09 00:47:00,56.8,47.1,30.16,SE,127,3.5,3.5,70,0.00,CLR,,0.00,WeatherDisplay:10.37,2013-11-09 06:47:00,
2013-11-09 00:52:00,56.7,47.0,30.15,SE,130,3.5,3.5,70,0.00,CLR,,0.00,WeatherDisplay:10.37,2013-11-09 06:52:00,
2013-11-09 00:57:00,56.7,47.4,30.15,ESE,113,3.5,3.6,71,0.00,CLR,,0.00,WeatherDisplay:10.37,2013-11-09 06:57:00,
2013-11-09 01:02:00,56.7,47.4,30.15,SE,138,3.5,3.5,71,0.00,CLR,,0.00,WeatherDisplay:10.37,2013-11-09 07:02:00,
2013-11-09 01:07:00,56.5,47.6,30.15,SSE,152,3.5,3.5,72,0.00,CLR,,0.00,WeatherDisplay:10.37,2013-11-09 07:07:00,
2013-11-09 01:12:00,56.5,47.6,30.15,SE,141,3.5,3.5,72,0.00,CLR,,0.00,WeatherDisplay:10.37,2013-11-09 07:12:00,
2013-11-09 01:17:00,56.5,47.6,30.15,SE,124,4.6,4.6,72,0.00,CLR,,0.00,WeatherDisplay:10.37,2013-11-09 07:17:00,
2013-11-09 01:22:00,56.5,47.9,30.15,SE,145,5.8,5.8,73,0.00,CLR,,0.00,WeatherDisplay:10.37,2013-11-09 07:22:00,
2013-11-09 01:27:00,56.4,47.9,30.15,SSE,154,5.8,5.8,73,0.00,CLR,,0.00,WeatherDisplay:10.37,2013-11-09 07:27:00,
2013-11-09 01:32:00,56.4,47.9,30.14,SE,146,5.0,5.0,73,0.00,CLR,,0.00,WeatherDisplay:10.37,2013-11-09 07:32:00,
2013-11-09 01:37:00,56.3,48.1,30.14,SE,133,3.5,3.5,74,0.00,CLR,,0.00,WeatherDisplay:10.37,2013-11-09 07:37:00,
2013-11-09 01:42:00,56.2,48.0,30.14,ESE,123,3.5,3.6,74,0.00,CLR,,0.00,WeatherDisplay:10.37,2013-11-09 07:42:00,
2013-11-09 01:47:00,56.1,48.3,30.14,ESE,118,4.0,4.0,75,0.00,CLR,,0.00,WeatherDisplay:10.37,2013-11-09 07:47:00,
2013-11-09 01:52:00,56.0,48.2,30.14,ESE,118,4.6,4.6,75,0.00,CLR,,0.00,WeatherDisplay:10.37,2013-11-09 07:52:00,
2013-11-09 01:57:00,56.0,48.2,30.14,SE,128,5.8,5.8,75,0.00,CLR,,0.00,WeatherDisplay:10.37,2013-11-09 07:57:00,
2013-11-09 02:02:00,56.0,48.5,30.14,SE,132,3.5,3.5,76,0.00,CLR,,0.00,WeatherDisplay:10.37,2013-11-09 08:02:00,
2013-11-09 02:07:00,55.9,48.4,30.14,ESE,122,4.6,4.6,76,0.00,CLR,,0.00,WeatherDisplay:10.37,2013-11-09 08:07:00,
2013-11-09 02:12:00,56.0,48.5,30.14,SE,145,4.6,4.6,76,0.00,CLR,,0.00,WeatherDisplay:10.37,2013-11-09 08:12:00,
2013-11-09 02:17:00,56.0,48.5,30.14,SSE,165,3.5,3.5,76,0.00,CLR,,0.00,WeatherDisplay:10.37,2013-11-09 08:17:00,
2013-11-09 02:22:00,56.0,48.5,30.14,SE,145,3.5,3.5,76,0.00,CLR,,0.00,WeatherDisplay:10.37,2013-11-09 08:22:00,
2013-11-09 02:27:00,55.9,48.4,30.14,SE,124,3.5,3.5,76,0.00,CLR,,0.00,WeatherDisplay:10.37,2013-11-09 08:27:00,
2013-11-09 02:32:00,55.9,48.4,30.13,ESE,118,3.5,3.5,76,0.00,CLR,,0.00,WeatherDisplay:10.37,2013-11-09 08:32:00,
2013-11-09 02:37:00,55.8,48.7,30.13,East,100,3.5,3.5,77,0.00,CLR,,0.00,WeatherDisplay:10.37,2013-11-09 08:37:00,
2013-11-09 02:42:00,55.7,48.6,30.13,ESE,115,3.5,3.5,77,0.00,CLR,,0.00,WeatherDisplay:10.37,2013-11-09 08:42:00,
2013-11-09 02:47:00,55.6,48.5,30.13,ESE,102,3.5,3.5,77,0.00,CLR,,0.00,WeatherDisplay:10.37,2013-11-09 08:47:00,
2013-11-09 02:52:00,55.5,48.4,30.13,ESE,102,3.5,3.5,77,0.00,CLR,,0.00,WeatherDisplay:10.37,2013-11-09 08:52:00,
2013-11-09 02:57:00,55.5,48.4,30.13,ESE,115,3.5,3.5,77,0.00,CLR,,0.00,WeatherDisplay:10.37,2013-11-09 08:57:00,
2013-11-09 03:02:00,55.5,48.4,30.13,ESE,103,3.5,3.5,77,0.00,CLR,,0.00,WeatherDisplay:10.37,2013-11-09 09:02:00,
2013-11-09 03:07:00,55.5,48.8,30.13,ESE,120,3.5,3.5,78,0.00,CLR,,0.00,WeatherDisplay:10.37,2013-11-09 09:07:00,
2013-11-09 03:12:00,55.5,48.8,30.13,ESE,120,2.3,2.3,78,0.00,CLR,,0.00,WeatherDisplay:10.37,2013-11-09 09:12:00,
2013-11-09 03:17:00,55.5,48.8,30.13,ESE,122,0.0,0.0,78,0.00,CLR,,0.00,WeatherDisplay:10.37,2013-11-09 09:17:00,
2013-11-09 03:22:00,55.4,48.7,30.13,ESE,121,0.0,0.0,78,0.00,CLR,,0.00,WeatherDisplay:10.37,2013-11-09 09:22:00,
2013-11-09 03:27:00,55.3,48.6,30.13,ESE,122,0.0,0.0,78,0.00,CLR,,0.00,WeatherDisplay:10.37,2013-11-09 09:27:00,
2013-11-09 03:32:00,55.3,48.6,30.13,ESE,122,0.0,0.0,78,0.00,CLR,,0.00,WeatherDisplay:10.37,2013-11-09 09:32:00,
2013-11-09 03:37:00,55.3,48.9,30.12,ESE,120,0.0,0.0,79,0.00,CLR,,0.00,WeatherDisplay:10.37,2013-11-09 09:37:00,
2013-11-09 03:42:00,55.2,48.8,30.13,ESE,120,0.0,0.0,79,0.00,CLR,,0.00,WeatherDisplay:10.37,2013-11-09 09:42:00,
2013-11-09 03:47:00,55.3,48.9,30.13,ESE,116,0.0,0.0,79,0.00,CLR,,0.00,WeatherDisplay:10.37,2013-11-09 09:47:00,
2013-11-09 03:52:00,55.3,48.9,30.13,ESE,116,0.0,0.0,79,0.00,CLR,,0.00,WeatherDisplay:10.37,2013-11-09 09:52:00,
2013-11-09 03:57:00,55.3,48.9,30.12,ESE,116,0.0,0.0,79,0.00,CLR,,0.00,WeatherDisplay:10.37,2013-11-09 09:57:00,
2013-11-09 04:02:00,55.4,49.0,30.12,ESE,116,0.0,0.0,79,0.00,CLR,,0.00,WeatherDisplay:10.37,2013-11-09 10:02:00,
2013-11-09 04:07:00,55.4,48.7,30.12,ESE,102,1.1,1.1,78,0.00,CLR,,0.00,WeatherDisplay:10.37,2013-11-09 10:07:00,
2013-11-09 04:12:00,55.5,48.8,30.12,ESE,111,1.1,1.1,78,0.00,CLR,,0.00,WeatherDisplay:10.37,2013-11-09 10:12:00,
2013-11-09 04:17:00,55.5,48.8,30.12,ESE,111,0.0,0.0,78,0.00,CLR,,0.00,WeatherDisplay:10.37,2013-11-09 10:17:00,
2013-11-09 04:22:00,55.4,49.0,30.12,ESE,108,0.0,0.0,79,0.00,CLR,,0.00,WeatherDisplay:10.37,2013-11-09 10:22:00,
2013-11-09 04:27:00,55.5,49.1,30.12,ESE,109,2.0,2.0,79,0.00,CLR,,0.00,WeatherDisplay:10.37,2013-11-09 10:27:00,
2013-11-09 04:32:00,55.5,49.1,30.12,ESE,112,2.3,2.3,79,0.00,CLR,,0.00,WeatherDisplay:10.37,2013-11-09 10:32:00,
2013-11-09 04:37:00,55.5,49.4,30.12,SE,124,1.1,0.0,80,0.00,CLR,,0.00,WeatherDisplay:10.37,2013-11-09 10:37:00,
2013-11-09 04:42:00,55.4,49.3,30.12,ESE,117,0.0,0.0,80,0.00,CLR,,0.00,WeatherDisplay:10.37,2013-11-09 10:42:00,
2013-11-09 04:47:00,55.3,49.6,30.12,ESE,117,1.1,0.0,81,0.00,CLR,,0.00,WeatherDisplay:10.37,2013-11-09 10:47:00,
2013-11-09 04:52:00,55.3,49.2,30.12,ESE,106,1.0,1.0,80,0.00,CLR,,0.00,WeatherDisplay:10.37,2013-11-09 10:52:00,
2013-11-09 04:57:00,55.3,49.2,30.12,ESE,105,0.0,0.1,80,0.00,CLR,,0.00,WeatherDisplay:10.37,2013-11-09 10:57:00,
2013-11-09 05:02:00,55.3,49.2,30.12,ESE,106,0.0,0.0,80,0.00,CLR,,0.00,WeatherDisplay:10.37,2013-11-09 11:02:00,
2013-11-09 05:07:00,55.2,49.1,30.13,ESE,106,0.0,0.0,80,0.00,CLR,,0.00,WeatherDisplay:10.37,2013-11-09 11:07:00,
2013-11-09 05:12:00,55.1,49.0,30.13,ESE,106,0.0,0.0,80,0.00,CLR,,0.00,WeatherDisplay:10.37,2013-11-09 11:12:00,
2013-11-09 05:17:00,55.1,49.0,30.13,ESE,106,0.0,0.0,80,0.00,CLR,,0.00,WeatherDisplay:10.37,2013-11-09 11:17:00,
2013-11-09 05:22:00,55.2,49.1,30.13,ESE,106,0.0,0.0,80,0.00,CLR,,0.00,WeatherDisplay:10.37,2013-11-09 11:22:00,
2013-11-09 05:27:00,55.3,49.2,30.13,ESE,106,0.0,0.0,80,0.00,CLR,,0.00,WeatherDisplay:10.37,2013-11-09 11:27:00,
2013-11-09 05:32:00,55.4,49.3,30.14,ESE,106,0.0,0.0,80,0.00,CLR,,0.00,WeatherDisplay:10.37,2013-11-09 11:32:00,
2013-11-09 05:37:00,55.4,49.0,30.14,ESE,106,0.0,0.0,79,0.00,CLR,,0.00,WeatherDisplay:10.37,2013-11-09 11:37:00,
2013-11-09 05:42:00,55.5,49.1,30.14,ESE,106,0.0,0.0,79,0.00,CLR,,0.00,WeatherDisplay:10.37,2013-11-09 11:42:00,
2013-11-09 05:47:00,55.5,50.1,30.14,NNW,330,1.1,0.0,82,0.00,CLR,,0.00,WeatherDisplay:10.37,2013-11-09 11:47:00,
2013-11-09 05:52:00,55.3,49.9,30.14,NW,325,1.1,1.1,82,0.00,CLR,,0.00,WeatherDisplay:10.37,2013-11-09 11:52:00,
2013-11-09 05:57:00,55.3,49.9,30.14,NW,325,2.3,0.0,82,0.00,CLR,,0.00,WeatherDisplay:10.37,2013-11-09 11:57:00,
2013-11-09 06:02:00,55.3,49.9,30.14,NNW,328,1.1,1.1,82,0.00,CLR,,0.00,WeatherDisplay:10.37,2013-11-09 12:02:00,
2013-11-09 06:07:00,55.3,50.2,30.14,NNW,333,1.1,0.0,83,0.00,CLR,,0.00,WeatherDisplay:10.37,2013-11-09 12:07:00,
2013-11-09 06:12:00,55.3,50.2,30.14,NNW,333,1.1,1.1,83,0.00,CLR,,0.00,WeatherDisplay:10.37,2013-11-09 12:12:00,
2013-11-09 06:17:00,55.3,50.5,30.14,NNW,333,1.1,1.1,84,0.00,CLR,,0.00,WeatherDisplay:10.37,2013-11-09 12:17:00,
2013-11-09 06:22:00,55.2,50.4,30.14,NNW,333,1.1,1.1,84,0.00,CLR,,0.00,WeatherDisplay:10.37,2013-11-09 12:22:00,
2013-11-09 06:27:00,55.2,50.8,30.15,NNW,333,1.1,0.0,85,0.00,CLR,,0.00,WeatherDisplay:10.37,2013-11-09 12:27:00,
2013-11-09 06:32:00,55.2,50.4,30.15,NNW,333,0.0,0.0,84,0.00,CLR,,0.00,WeatherDisplay:10.37,2013-11-09 12:32:00,
2013-11-09 06:37:00,55.2,50.4,30.15,NNW,333,0.0,0.0,84,0.00,CLR,,0.00,WeatherDisplay:10.37,2013-11-09 12:37:00,
2013-11-09 06:42:00,55.2,50.4,30.15,NNW,333,0.0,0.0,84,0.00,CLR,,0.00,WeatherDisplay:10.37,2013-11-09 12:42:00,
2013-11-09 06:47:00,55.2,50.4,30.15,NNW,333,0.0,0.0,84,0.00,CLR,,0.00,WeatherDisplay:10.37,2013-11-09 12:47:00,
2013-11-09 06:52:00,55.2,50.4,30.15,NNW,333,0.0,0.0,84,0.00,CLR,,0.00,WeatherDisplay:10.37,2013-11-09 12:52:00,
2013-11-09 06:57:00,55.3,50.5,30.16,NNW,333,1.1,1.1,84,0.00,CLR,,0.00,WeatherDisplay:10.37,2013-11-09 12:57:00,
2013-11-09 07:02:00,55.3,50.9,30.16,NNW,333,0.0,0.0,85,0.01,RA,,0.01,WeatherDisplay:10.37,2013-11-09 13:02:00,
2013-11-09 07:07:00,55.1,51.3,30.16,NNW,336,0.0,0.3,87,0.01,RA,,0.01,WeatherDisplay:10.37,2013-11-09 13:07:00,
2013-11-09 07:12:00,54.8,51.3,30.16,NNW,336,0.0,0.0,88,0.01,,,0.01,WeatherDisplay:10.37,2013-11-09 13:12:00,
2013-11-09 07:17:00,54.7,51.5,30.16,NNW,335,1.1,0.0,89,0.02,RA,,0.02,WeatherDisplay:10.37,2013-11-09 13:17:00,
2013-11-09 07:22:00,54.5,51.6,30.16,NNW,336,0.0,0.0,90,0.03,RA,,0.04,WeatherDisplay:10.37,2013-11-09 13:22:00,
2013-11-09 07:27:00,54.4,51.8,30.16,NNW,336,1.1,0.0,91,0.04,RA,,0.04,WeatherDisplay:10.37,2013-11-09 13:27:00,
2013-11-09 07:32:00,54.4,51.8,30.17,NNW,338,2.3,2.3,91,0.05,RA,,0.05,WeatherDisplay:10.37,2013-11-09 13:32:00,
2013-11-09 07:37:00,54.3,52.0,30.17,NNW,334,1.1,1.1,92,0.05,RA,,0.05,WeatherDisplay:10.37,2013-11-09 13:37:00,
2013-11-09 07:42:00,54.1,51.8,30.16,NE,49,2.3,2.3,92,0.05,,,0.05,WeatherDisplay:10.37,2013-11-09 13:42:00,
2013-11-09 07:47:00,54.1,51.8,30.16,ENE,64,2.3,2.3,92,0.05,CLR,,0.05,WeatherDisplay:10.37,2013-11-09 13:47:00,
2013-11-09 07:52:00,54.0,51.7,30.16,ENE,64,2.3,2.3,92,0.05,CLR,,0.05,WeatherDisplay:10.37,2013-11-09 13:52:00,
2013-11-09 07:57:00,54.0,51.7,30.16,East,82,3.5,3.5,92,0.05,CLR,,0.05,WeatherDisplay:10.37,2013-11-09 13:57:00,
2013-11-09 08:02:00,54.1,51.8,30.17,ENE,72,2.3,2.3,92,0.04,CLR,,0.05,WeatherDisplay:10.37,2013-11-09 14:02:00,
2013-11-09 08:07:00,54.0,51.7,30.17,ENE,65,2.3,2.3,92,0.04,CLR,,0.05,WeatherDisplay:10.37,2013-11-09 14:07:00,
2013-11-09 08:12:00,54.1,51.8,30.17,ENE,76,2.0,2.0,92,0.04,CLR,,0.05,WeatherDisplay:10.37,2013-11-09 14:12:00,
2013-11-09 08:17:00,54.0,51.7,30.16,ENE,67,2.3,2.3,92,0.03,CLR,,0.05,WeatherDisplay:10.37,2013-11-09 14:17:00,
2013-11-09 08:22:00,54.1,51.8,30.17,ENE,68,2.3,2.3,92,0.02,CLR,,0.05,WeatherDisplay:10.37,2013-11-09 14:22:00,
2013-11-09 08:27:00,54.3,52.0,30.17,ENE,75,3.5,3.5,92,0.01,CLR,,0.05,WeatherDisplay:10.37,2013-11-09 14:27:00,
2013-11-09 08:32:00,54.4,52.1,30.17,ENE,60,2.3,2.3,92,0.00,CLR,,0.05,WeatherDisplay:10.37,2013-11-09 14:32:00,
2013-11-09 08:37:00,54.6,52.3,30.17,ENE,60,3.5,3.5,92,0.00,CLR,,0.05,WeatherDisplay:10.37,2013-11-09 14:37:00,
2013-11-09 08:42:00,54.6,52.3,30.17,ENE,65,3.5,3.5,92,0.00,CLR,,0.05,WeatherDisplay:10.37,2013-11-09 14:42:00,
2013-11-09 08:47:00,54.7,52.4,30.17,East,82,3.5,3.5,92,0.00,CLR,,0.05,WeatherDisplay:10.37,2013-11-09 14:47:00,
2013-11-09 08:52:00,54.7,52.4,30.18,NE,39,3.5,3.5,92,0.00,CLR,,0.05,WeatherDisplay:10.37,2013-11-09 14:52:00,
2013-11-09 08:58:00,54.7,52.4,30.18,NE,44,3.5,3.5,92,0.00,CLR,,0.05,WeatherDisplay:10.37,2013-11-09 14:58:00,
2013-11-09 09:03:00,54.9,52.3,30.18,ENE,58,1.1,1.1,91,0.00,CLR,,0.05,WeatherDisplay:10.37,2013-11-09 15:03:00,
2013-11-09 09:08:00,54.9,52.3,30.18,NE,44,2.3,2.3,91,0.00,CLR,,0.05,WeatherDisplay:10.37,2013-11-09 15:08:00,
2013-11-09 09:13:00,54.9,52.3,30.19,NE,46,1.1,1.1,91,0.00,CLR,,0.05,WeatherDisplay:10.37,2013-11-09 15:13:00,
2013-11-09 09:18:00,55.0,52.1,30.19,NNE,15,2.3,2.3,90,0.00,CLR,,0.05,WeatherDisplay:10.37,2013-11-09 15:18:00,
2013-11-09 09:23:00,55.1,51.9,30.19,NNE,26,3.5,3.5,89,0.00,CLR,,0.05,WeatherDisplay:10.37,2013-11-09 15:23:00,
2013-11-09 09:28:00,55.2,52.0,30.19,North,353,1.1,1.1,89,0.00,CLR,,0.05,WeatherDisplay:10.37,2013-11-09 15:28:00,
2013-11-09 09:33:00,55.5,52.3,30.19,NNW,329,3.5,3.5,89,0.00,CLR,,0.05,WeatherDisplay:10.37,2013-11-09 15:33:00,
2013-11-09 09:38:00,55.5,52.3,30.20,NNE,20,3.5,3.5,89,0.00,CLR,,0.05,WeatherDisplay:10.37,2013-11-09 15:38:00,
2013-11-09 09:43:00,55.6,52.1,30.19,NE,56,3.5,3.5,88,0.00,CLR,,0.05,WeatherDisplay:10.37,2013-11-09 15:43:00,
2013-11-09 09:48:00,55.7,52.2,30.19,NNE,21,3.5,3.5,88,0.00,CLR,,0.05,WeatherDisplay:10.37,2013-11-09 15:48:00,
2013-11-09 09:53:00,55.9,52.7,30.20,NE,41,3.5,3.5,89,0.00,CLR,,0.05,WeatherDisplay:10.37,2013-11-09 15:53:00,
2013-11-09 09:58:00,56.0,52.5,30.19,NE,41,3.5,3.5,88,0.00,CLR,,0.05,WeatherDisplay:10.37,2013-11-09 15:58:00,
2013-11-09 10:03:00,56.0,51.9,30.20,North,352,2.3,2.3,86,0.00,CLR,,0.05,WeatherDisplay:10.37,2013-11-09 16:03:00,
2013-11-09 10:08:00,56.3,52.5,30.20,NNE,27,1.1,1.1,87,0.00,CLR,,0.05,WeatherDisplay:10.37,2013-11-09 16:08:00,
2013-11-09 10:13:00,56.7,52.6,30.20,ENE,64,2.3,2.3,86,0.00,CLR,,0.05,WeatherDisplay:10.37,2013-11-09 16:13:00,
2013-11-09 10:18:00,57.1,53.0,30.20,NW,323,3.5,3.5,86,0.00,CLR,,0.05,WeatherDisplay:10.37,2013-11-09 16:18:00,
2013-11-09 10:23:00,58.2,53.7,30.20,West,281,2.3,2.3,85,0.00,CLR,,0.05,WeatherDisplay:10.37,2013-11-09 16:23:00,
2013-11-09 10:28:00,59.0,54.2,30.19,NE,56,2.3,2.3,84,0.00,CLR,,0.05,WeatherDisplay:10.37,2013-11-09 16:28:00,
2013-11-09 10:33:00,59.3,53.1,30.19,East,82,3.5,3.5,80,0.00,CLR,,0.05,WeatherDisplay:10.37,2013-11-09 16:33:00,
2013-11-09 10:38:00,59.0,53.5,30.19,NE,48,4.6,4.6,82,0.00,CLR,,0.05,WeatherDisplay:10.37,2013-11-09 16:38:00,
2013-11-09 10:43:00,59.0,53.2,30.19,East,80,3.5,3.5,81,0.00,CLR,,0.05,WeatherDisplay:10.37,2013-11-09 16:43:00,
2013-11-09 10:48:00,59.0,53.2,30.19,ESE,108,1.1,1.1,81,0.00,CLR,,0.05,WeatherDisplay:10.37,2013-11-09 16:48:00,
2013-11-09 10:53:00,59.4,54.2,30.19,East,89,3.5,3.5,83,0.00,CLR,,0.05,WeatherDisplay:10.37,2013-11-09 16:53:00,
2013-11-09 10:58:00,59.8,54.3,30.19,North,9,3.5,3.5,82,0.00,CLR,,0.05,WeatherDisplay:10.37,2013-11-09 16:58:00,
2013-11-09 11:03:00,60.3,54.4,30.19,ENE,72,3.5,3.5,81,0.00,CLR,,0.05,WeatherDisplay:10.37,2013-11-09 17:03:00,
2013-11-09 11:08:00,60.4,54.5,30.18,West,281,1.1,1.1,81,0.00,CLR,,0.05,WeatherDisplay:10.37,2013-11-09 17:08:00,
2013-11-09 11:13:00,61.2,55.3,30.18,East,98,3.5,3.5,81,0.00,CLR,,0.05,WeatherDisplay:10.37,2013-11-09 17:13:00,
2013-11-09 11:18:00,61.4,54.8,30.18,ESE,119,4.6,4.6,79,0.00,CLR,,0.05,WeatherDisplay:10.37,2013-11-09 17:18:00,
2013-11-09 11:23:00,61.6,55.0,30.18,SE,124,2.3,2.3,79,0.00,CLR,,0.05,WeatherDisplay:10.37,2013-11-09 17:23:00,
2013-11-09 11:28:00,62.3,56.0,30.18,East,101,3.5,3.5,80,0.00,CLR,,0.05,WeatherDisplay:10.37,2013-11-09 17:28:00,
2013-11-09 11:33:00,62.4,55.8,30.17,SE,141,3.5,3.5,79,0.00,CLR,,0.05,WeatherDisplay:10.37,2013-11-09 17:33:00,
2013-11-09 11:38:00,62.4,55.4,30.17,ESE,109,4.6,4.6,78,0.00,CLR,,0.05,WeatherDisplay:10.37,2013-11-09 17:38:00,
2013-11-09 11:43:00,62.5,55.5,30.17,ESE,102,4.6,4.6,78,0.00,CLR,,0.05,WeatherDisplay:10.37,2013-11-09 17:43:00,
2013-11-09 11:48:00,63.0,56.4,30.17,SE,136,3.5,3.6,79,0.00,CLR,,0.05,WeatherDisplay:10.37,2013-11-09 17:48:00,
2013-11-09 11:53:00,63.7,56.7,30.16,ENE,77,2.3,2.3,78,0.00,CLR,,0.05,WeatherDisplay:10.37,2013-11-09 17:53:00,
2013-11-09 11:58:00,64.0,56.6,30.16,SE,129,1.1,1.1,77,0.00,CLR,,0.05,WeatherDisplay:10.37,2013-11-09 17:58:00,
2013-11-09 12:03:00,64.6,56.9,30.16,East,96,2.3,2.3,76,0.00,CLR,,0.05,WeatherDisplay:10.37,2013-11-09 18:03:00,
2013-11-09 12:08:00,65.1,57.7,30.16,SSE,160,5.8,5.8,77,0.00,CLR,,0.05,WeatherDisplay:10.37,2013-11-09 18:08:00,
2013-11-09 12:13:00,65.4,57.6,30.16,SSW,198,3.5,3.5,76,0.00,CLR,,0.05,WeatherDisplay:10.37,2013-11-09 18:13:00,
2013-11-09 12:18:00,65.6,57.1,30.15,ESE,109,4.6,4.6,74,0.00,CLR,,0.05,WeatherDisplay:10.37,2013-11-09 18:18:00,
2013-11-09 12:23:00,65.6,57.5,30.15,ESE,121,1.1,1.1,75,0.00,CLR,,0.05,WeatherDisplay:10.37,2013-11-09 18:23:00,
2013-11-09 12:28:00,65.9,57.7,30.15,ESE,117,1.1,1.1,75,0.00,CLR,,0.05,WeatherDisplay:10.37,2013-11-09 18:28:00,
2013-11-09 12:33:00,66.3,58.9,30.15,SSE,156,5.8,5.8,77,0.00,CLR,,0.05,WeatherDisplay:10.37,2013-11-09 18:33:00,
2013-11-09 12:38:00,66.9,58.0,30.14,SE,140,2.3,2.3,73,0.00,CLR,,0.05,WeatherDisplay:10.37,2013-11-09 18:38:00,
2013-11-09 12:43:00,67.7,59.1,30.14,SE,136,6.9,6.9,74,0.00,CLR,,0.05,WeatherDisplay:10.37,2013-11-09 18:43:00,
2013-11-09 12:48:00,67.7,59.1,30.14,SSE,162,4.0,4.0,74,0.00,CLR,,0.05,WeatherDisplay:10.37,2013-11-09 18:48:00,
2013-11-09 12:53:00,67.9,58.9,30.14,ESE,105,6.0,6.0,73,0.00,CLR,,0.05,WeatherDisplay:10.37,2013-11-09 18:53:00,
2013-11-09 12:58:00,68.1,58.3,30.14,South,174,6.9,6.9,71,0.00,CLR,,0.05,WeatherDisplay:10.37,2013-11-09 18:58:00,
2013-11-09 13:03:00,68.0,58.6,30.13,SSE,150,6.0,6.0,72,0.00,CLR,,0.05,WeatherDisplay:10.37,2013-11-09 19:03:00,
2013-11-09 13:08:00,68.1,58.7,30.12,SW,214,3.5,3.5,72,0.00,CLR,,0.05,WeatherDisplay:10.37,2013-11-09 19:08:00,
2013-11-09 13:13:00,68.5,58.7,30.12,SE,131,10.4,10.4,71,0.00,CLR,,0.05,WeatherDisplay:10.37,2013-11-09 19:13:00,
2013-11-09 13:18:00,68.5,59.1,30.12,SE,133,9.0,9.0,72,0.00,CLR,,0.05,WeatherDisplay:10.37,2013-11-09 19:18:00,
2013-11-09 13:23:00,68.6,58.8,30.12,South,182,3.5,3.5,71,0.00,CLR,,0.05,WeatherDisplay:10.37,2013-11-09 19:23:00,
2013-11-09 13:28:00,68.9,58.7,30.11,SSW,201,9.2,9.2,70,0.00,CLR,,0.05,WeatherDisplay:10.37,2013-11-09 19:28:00,
2013-11-09 13:33:00,69.0,58.8,30.11,SE,126,6.9,6.9,70,0.00,CLR,,0.05,WeatherDisplay:10.37,2013-11-09 19:33:00,
2013-11-09 13:38:00,69.3,58.7,30.11,SSE,156,5.8,5.8,69,0.00,CLR,,0.05,WeatherDisplay:10.37,2013-11-09 19:38:00,
2013-11-09 13:43:00,69.8,59.6,30.11,SE,146,11.5,11.5,70,0.00,CLR,,0.05,WeatherDisplay:10.37,2013-11-09 19:43:00,
2013-11-09 13:48:00,69.9,58.4,30.11,SSE,153,6.9,6.9,67,0.00,CLR,,0.05,WeatherDisplay:10.37,2013-11-09 19:48:00,
2013-11-09 13:53:00,69.7,59.5,30.11,SW,218,3.5,3.5,70,0.00,CLR,,0.05,WeatherDisplay:10.37,2013-11-09 19:53:00,
2013-11-09 13:58:00,69.4,58.8,30.11,SSW,201,3.5,3.5,69,0.00,CLR,,0.05,WeatherDisplay:10.37,2013-11-09 19:58:00,
2013-11-09 14:03:00,69.4,58.8,30.11,SSE,163,9.2,9.2,69,0.00,CLR,,0.05,WeatherDisplay:10.37,2013-11-09 20:03:00,
2013-11-09 14:08:00,69.3,58.7,30.11,SSW,210,10.4,10.4,69,0.00,CLR,,0.05,WeatherDisplay:10.37,2013-11-09 20:08:00,
2013-11-09 14:13:00,69.6,58.6,30.11,South,179,9.2,9.2,68,0.00,CLR,,0.05,WeatherDisplay:10.37,2013-11-09 20:13:00,
2013-11-09 14:18:00,69.8,58.8,30.11,SE,141,8.1,8.1,68,0.00,CLR,,0.05,WeatherDisplay:10.37,2013-11-09 20:18:00,
2013-11-09 14:23:00,69.8,58.8,30.11,SSE,166,3.5,3.5,68,0.00,CLR,,0.05,WeatherDisplay:10.37,2013-11-09 20:23:00,
2013-11-09 14:28:00,69.9,58.9,30.11,SSW,210,6.9,6.9,68,0.00,CLR,,0.05,WeatherDisplay:10.37,2013-11-09 20:28:00,
2013-11-09 14:33:00,69.8,59.2,30.10,SSE,153,6.9,6.9,69,0.00,CLR,,0.05,WeatherDisplay:10.37,2013-11-09 20:33:00,
2013-11-09 14:38:00,69.8,58.8,30.10,ESE,102,9.2,9.2,68,0.00,CLR,,0.05,WeatherDisplay:10.37,2013-11-09 20:38:00,
2013-11-09 14:43:00,69.7,59.1,30.10,ESE,122,6.0,6.0,69,0.00,CLR,,0.05,WeatherDisplay:10.37,2013-11-09 20:43:00,
2013-11-09 14:48:00,69.6,59.0,30.10,SE,145,5.0,5.0,69,0.00,CLR,,0.05,WeatherDisplay:10.37,2013-11-09 20:48:00,
2013-11-09 14:53:00,70.0,59.4,30.10,South,172,5.8,5.8,69,0.00,CLR,,0.05,WeatherDisplay:10.37,2013-11-09 20:53:00,
2013-11-09 14:58:00,70.2,59.1,30.10,SE,133,6.0,6.0,68,0.00,CLR,,0.05,WeatherDisplay:10.37,2013-11-09 20:58:00,
2013-11-09 15:03:00,70.1,58.2,30.10,SE,140,5.8,5.8,66,0.00,CLR,,0.05,WeatherDisplay:10.37,2013-11-09 21:03:00,
2013-11-09 15:08:00,70.2,58.7,30.10,SE,139,6.9,6.9,67,0.00,CLR,,0.05,WeatherDisplay:10.37,2013-11-09 21:08:00,
2013-11-09 15:13:00,70.1,59.5,30.10,ESE,123,7.0,7.0,69,0.00,CLR,,0.05,WeatherDisplay:10.37,2013-11-09 21:13:00,
2013-11-09 15:18:00,70.0,59.0,30.10,SSE,165,4.6,4.6,68,0.00,CLR,,0.05,WeatherDisplay:10.37,2013-11-09 21:18:00,
2013-11-09 15:23:00,70.2,59.1,30.10,ESE,114,5.8,5.8,68,0.00,CLR,,0.05,WeatherDisplay:10.37,2013-11-09 21:23:00,
2013-11-09 15:28:00,70.4,59.3,30.10,South,172,5.8,5.8,68,0.00,CLR,,0.05,WeatherDisplay:10.37,2013-11-09 21:28:00,
2013-11-09 15:33:00,70.3,59.2,30.10,ESE,123,5.8,5.8,68,0.00,CLR,,0.05,WeatherDisplay:10.37,2013-11-09 21:33:00,
2013-11-09 15:38:00,70.2,59.1,30.10,SE,136,3.5,3.5,68,0.00,CLR,,0.05,WeatherDisplay:10.37,2013-11-09 21:38:00,
2013-11-09 15:43:00,70.3,59.2,30.10,ESE,108,5.8,5.8,68,0.00,CLR,,0.05,WeatherDisplay:10.37,2013-11-09 21:43:00,
2013-11-09 15:48:00,70.0,59.0,30.10,ESE,121,3.5,3.5,68,0.00,CLR,,0.05,WeatherDisplay:10.37,2013-11-09 21:48:00,
2013-11-09 15:53:00,69.9,59.7,30.10,ESE,114,3.5,3.5,70,0.00,CLR,,0.05,WeatherDisplay:10.37,2013-11-09 21:53:00,
2013-11-09 15:58:00,69.9,59.3,30.10,ESE,114,4.0,4.0,69,0.00,CLR,,0.05,WeatherDisplay:10.37,2013-11-09 21:58:00,
2013-11-09 16:03:00,69.9,59.3,30.10,East,98,4.6,4.6,69,0.00,CLR,,0.05,WeatherDisplay:10.37,2013-11-09 22:03:00,
2013-11-09 16:08:00,69.7,59.5,30.10,ESE,105,3.5,3.5,70,0.00,CLR,,0.05,WeatherDisplay:10.37,2013-11-09 22:08:00,
2013-11-09 16:13:00,69.7,59.1,30.11,ESE,108,3.5,3.5,69,0.00,CLR,,0.05,WeatherDisplay:10.37,2013-11-09 22:13:00,
2013-11-09 16:18:00,69.7,59.5,30.10,East,94,3.5,3.5,70,0.00,CLR,,0.05,WeatherDisplay:10.37,2013-11-09 22:18:00,
2013-11-09 16:23:00,69.5,58.9,30.11,ENE,77,3.5,3.5,69,0.00,CLR,,0.05,WeatherDisplay:10.37,2013-11-09 22:23:00,
2013-11-09 16:28:00,69.4,59.2,30.11,East,91,2.3,2.3,70,0.00,CLR,,0.05,WeatherDisplay:10.37,2013-11-09 22:28:00,
2013-11-09 16:33:00,69.3,59.5,30.11,East,90,2.3,2.3,71,0.00,CLR,,0.05,WeatherDisplay:10.37,2013-11-09 22:33:00,
2013-11-09 16:38:00,69.3,59.9,30.11,ESE,103,2.3,2.3,72,0.00,CLR,,0.05,WeatherDisplay:10.37,2013-11-09 22:38:00,
2013-11-09 16:43:00,69.1,59.3,30.11,East,90,3.5,3.5,71,0.00,CLR,,0.05,WeatherDisplay:10.37,2013-11-09 22:43:00,
2013-11-09 16:48:00,69.0,59.2,30.11,East,91,3.5,3.5,71,0.00,CLR,,0.05,WeatherDisplay:10.37,2013-11-09 22:48:00,
2013-11-09 16:53:00,68.9,59.5,30.11,ESE,109,2.3,2.3,72,0.00,CLR,,0.05,WeatherDisplay:10.37,2013-11-09 22:53:00,
2013-11-09 16:58:00,68.8,59.4,30.11,East,94,0.0,0.4,72,0.00,CLR,,0.05,WeatherDisplay:10.37,2013-11-09 22:58:00,
2013-11-09 17:03:00,68.6,60.0,30.11,East,85,1.1,0.0,74,0.00,CLR,,0.05,WeatherDisplay:10.37,2013-11-09 23:03:00,
2013-11-09 17:08:00,68.5,59.9,30.11,East,84,0.0,0.0,74,0.00,CLR,,0.05,WeatherDisplay:10.37,2013-11-09 23:08:00,
2013-11-09 17:13:00,68.3,59.7,30.11,East,87,0.0,0.0,74,0.00,CLR,,0.05,WeatherDisplay:10.37,2013-11-09 23:13:00,
2013-11-09 17:18:00,68.3,60.1,30.12,East,91,2.3,2.3,75,0.00,CLR,,0.05,WeatherDisplay:10.37,2013-11-09 23:18:00,
2013-11-09 17:23:00,68.2,59.6,30.12,East,87,0.0,0.0,74,0.00,CLR,,0.05,WeatherDisplay:10.37,2013-11-09 23:23:00,
2013-11-09 17:28:00,68.1,59.9,30.11,East,85,0.0,0.0,75,0.00,CLR,,0.05,WeatherDisplay:10.37,2013-11-09 23:28:00,
2013-11-09 17:33:00,68.0,59.8,30.11,East,81,0.0,0.0,75,0.00,CLR,,0.05,WeatherDisplay:10.37,2013-11-09 23:33:00,
2013-11-09 17:38:00,67.9,59.7,30.11,East,94,0.0,0.0,75,0.00,CLR,,0.05,WeatherDisplay:10.37,2013-11-09 23:38:00,
2013-11-09 17:43:00,67.8,60.0,30.11,East,93,0.0,0.0,76,0.00,CLR,,0.05,WeatherDisplay:10.37,2013-11-09 23:43:00,
2013-11-09 17:48:00,67.6,59.8,30.11,East,85,0.0,0.0,76,0.00,CLR,,0.05,WeatherDisplay:10.37,2013-11-09 23:48:00,
2013-11-09 17:53:00,67.5,59.7,30.11,East,79,2.3,2.3,76,0.00,CLR,,0.05,WeatherDisplay:10.37,2013-11-09 23:53:00,
2013-11-09 17:58:00,67.4,59.9,30.11,East,82,0.0,0.0,77,0.00,CLR,,0.05,WeatherDisplay:10.37,2013-11-09 23:58:00,
2013-11-09 18:03:00,67.3,59.8,30.11,ENE,78,0.0,0.0,77,0.00,CLR,,0.05,WeatherDisplay:10.37,2013-11-10 00:03:00,
2013-11-09 18:08:00,67.2,59.7,30.11,East,83,0.0,0.0,77,0.00,CLR,,0.05,WeatherDisplay:10.37,2013-11-10 00:08:00,
2013-11-09 18:13:00,67.1,60.0,30.12,ENE,76,0.0,0.0,78,0.00,CLR,,0.05,WeatherDisplay:10.37,2013-11-10 00:13:00,
2013-11-09 18:18:00,66.9,59.8,30.12,East,81,0.0,0.0,78,0.00,CLR,,0.05,WeatherDisplay:10.37,2013-11-10 00:18:00,
2013-11-09 18:23:00,66.9,59.8,30.12,East,89,0.0,0.0,78,0.00,CLR,,0.05,WeatherDisplay:10.37,2013-11-10 00:23:00,
2013-11-09 18:28:00,66.8,60.1,30.12,ENE,72,0.0,0.0,79,0.00,CLR,,0.05,WeatherDisplay:10.37,2013-11-10 00:28:00,
2013-11-09 18:33:00,66.6,59.9,30.12,ENE,78,0.0,0.0,79,0.00,CLR,,0.05,WeatherDisplay:10.37,2013-11-10 00:33:00,
2013-11-09 18:38:00,66.3,59.9,30.12,East,79,0.0,0.0,80,0.00,CLR,,0.05,WeatherDisplay:10.37,2013-11-10 00:38:00,
2013-11-09 18:43:00,66.1,59.7,30.12,East,86,0.0,0.0,80,0.00,CLR,,0.05,WeatherDisplay:10.37,2013-11-10 00:43:00,
2013-11-09 18:48:00,65.9,59.6,30.13,ENE,65,0.0,0.0,80,0.00,CLR,,0.05,WeatherDisplay:10.37,2013-11-10 00:48:00,
2013-11-09 18:53:00,65.8,59.5,30.13,ENE,60,2.3,2.3,80,0.00,CLR,,0.05,WeatherDisplay:10.37,2013-11-10 00:53:00,
2013-11-09 18:58:00,65.8,59.5,30.13,NE,54,3.5,3.5,80,0.00,CLR,,0.05,WeatherDisplay:10.37,2013-11-10 00:58:00,
2013-11-09 19:03:00,65.9,59.6,30.13,NE,43,3.0,3.0,80,0.00,CLR,,0.05,WeatherDisplay:10.37,2013-11-10 01:03:00,
2013-11-09 19:08:00,66.0,59.7,30.13,NE,49,2.3,2.3,80,0.00,CLR,,0.05,WeatherDisplay:10.37,2013-11-10 01:08:00,
2013-11-09 19:13:00,66.1,59.7,30.14,NE,44,3.5,3.5,80,0.00,CLR,,0.05,WeatherDisplay:10.37,2013-11-10 01:13:00,
2013-11-09 19:18:00,66.2,59.8,30.14,NE,41,3.5,3.5,80,0.00,CLR,,0.05,WeatherDisplay:10.37,2013-11-10 01:18:00,
2013-11-09 19:23:00,66.2,59.8,30.14,ENE,57,3.5,3.5,80,0.00,CLR,,0.05,WeatherDisplay:10.37,2013-11-10 01:23:00,
2013-11-09 19:28:00,66.3,59.6,30.14,ENE,67,3.5,3.5,79,0.00,CLR,,0.05,WeatherDisplay:10.37,2013-11-10 01:28:00,
2013-11-09 19:33:00,66.3,59.9,30.14,ENE,75,3.5,3.5,80,0.00,CLR,,0.05,WeatherDisplay:10.37,2013-11-10 01:33:00,
2013-11-09 19:38:00,66.2,59.8,30.14,ENE,73,3.5,3.5,80,0.00,CLR,,0.05,WeatherDisplay:10.37,2013-11-10 01:38:00,
2013-11-09 19:43:00,66.2,59.8,30.14,ENE,69,3.5,3.5,80,0.00,CLR,,0.05,WeatherDisplay:10.37,2013-11-10 01:43:00,
2013-11-09 19:48:00,66.2,60.2,30.14,ENE,71,4.0,4.0,81,0.00,CLR,,0.05,WeatherDisplay:10.37,2013-11-10 01:48:00,
2013-11-09 19:53:00,66.2,59.8,30.15,ESE,109,3.5,3.5,80,0.00,CLR,,0.05,WeatherDisplay:10.37,2013-11-10 01:53:00,
2013-11-09 19:58:00,66.1,60.1,30.15,ENE,77,2.3,2.3,81,0.00,CLR,,0.05,WeatherDisplay:10.37,2013-11-10 01:58:00,
2013-11-09 20:03:00,66.0,60.0,30.15,ENE,74,3.5,3.5,81,0.00,CLR,,0.05,WeatherDisplay:10.37,2013-11-10 02:03:00,
2013-11-09 20:08:00,66.0,60.3,30.15,East,89,2.0,2.0,82,0.00,CLR,,0.05,WeatherDisplay:10.37,2013-11-10 02:08:00,
2013-11-09 20:13:00,66.2,60.2,30.15,East,79,2.3,2.3,81,0.00,CLR,,0.05,WeatherDisplay:10.37,2013-11-10 02:13:00,
2013-11-09 20:18:00,66.1,60.4,30.15,East,79,2.3,2.3,82,0.00,CLR,,0.05,WeatherDisplay:10.37,2013-11-10 02:18:00,
2013-11-09 20:24:00,66.0,60.3,30.15,ENE,70,3.5,3.5,82,0.00,CLR,,0.05,WeatherDisplay:10.37,2013-11-10 02:24:00,
2013-11-09 20:29:00,65.9,60.2,30.15,ENE,72,3.5,3.5,82,0.00,CLR,,0.05,WeatherDisplay:10.37,2013-11-10 02:29:00,
2013-11-09 20:34:00,65.7,60.1,30.15,ENE,75,2.3,2.4,82,0.00,CLR,,0.05,WeatherDisplay:10.37,2013-11-10 02:34:00,
2013-11-09 20:39:00,65.6,60.3,30.15,ENE,71,3.5,3.5,83,0.00,CLR,,0.05,WeatherDisplay:10.37,2013-11-10 02:39:00,
2013-11-09 20:44:00,65.6,60.3,30.15,East,79,3.5,3.5,83,0.00,CLR,,0.05,WeatherDisplay:10.37,2013-11-10 02:44:00,
2013-11-09 20:49:00,65.5,60.2,30.15,East,84,3.5,3.5,83,0.00,CLR,,0.05,WeatherDisplay:10.37,2013-11-10 02:49:00,
2013-11-09 20:54:00,65.4,60.1,30.15,East,79,3.5,3.5,83,0.00,CLR,,0.05,WeatherDisplay:10.37,2013-11-10 02:54:00,
2013-11-09 20:59:00,65.4,60.1,30.15,East,91,3.5,3.5,83,0.00,CLR,,0.05,WeatherDisplay:10.37,2013-11-10 02:59:00,
2013-11-09 21:04:00,65.3,60.3,30.15,East,79,3.5,3.5,84,0.00,CLR,,0.05,WeatherDisplay:10.37,2013-11-10 03:04:00,
2013-11-09 21:09:00,65.3,60.3,30.15,East,81,3.5,3.5,84,0.00,CLR,,0.05,WeatherDisplay:10.37,2013-11-10 03:09:00,
2013-11-09 21:14:00,65.2,60.2,30.15,East,98,3.5,3.5,84,0.00,CLR,,0.05,WeatherDisplay:10.37,2013-11-10 03:14:00,
2013-11-09 21:19:00,65.2,60.2,30.16,ESE,102,2.3,2.3,84,0.00,CLR,,0.05,WeatherDisplay:10.37,2013-11-10 03:19:00,
2013-11-09 21:24:00,65.1,60.1,30.16,East,84,2.3,2.3,84,0.00,CLR,,0.05,WeatherDisplay:10.37,2013-11-10 03:24:00,
2013-11-09 21:29:00,65.1,60.1,30.16,East,84,3.5,3.5,84,0.00,CLR,,0.05,WeatherDisplay:10.37,2013-11-10 03:29:00,
2013-11-09 21:34:00,65.1,60.1,30.16,ENE,75,3.5,3.5,84,0.00,CLR,,0.05,WeatherDisplay:10.37,2013-11-10 03:34:00,
2013-11-09 21:39:00,65.0,60.4,30.16,East,86,2.3,2.3,85,0.00,CLR,,0.05,WeatherDisplay:10.37,2013-11-10 03:39:00,
2013-11-09 21:44:00,65.0,60.4,30.16,ENE,75,3.5,3.5,85,0.00,CLR,,0.05,WeatherDisplay:10.37,2013-11-10 03:44:00,
2013-11-09 21:49:00,64.9,60.3,30.16,ENE,76,3.5,3.5,85,0.00,CLR,,0.05,WeatherDisplay:10.37,2013-11-10 03:49:00,
2013-11-09 21:54:00,64.9,60.3,30.16,East,80,3.5,3.5,85,0.00,CLR,,0.05,WeatherDisplay:10.37,2013-11-10 03:54:00,
2013-11-09 21:59:00,64.9,60.3,30.16,East,79,2.3,2.3,85,0.00,CLR,,0.05,WeatherDisplay:10.37,2013-11-10 03:59:00,
2013-11-09 22:04:00,64.8,60.5,30.16,ENE,72,2.3,2.3,86,0.00,CLR,,0.05,WeatherDisplay:10.37,2013-11-10 04:04:00,
2013-11-09 22:09:00,64.8,60.5,30.16,ENE,60,2.3,2.3,86,0.00,CLR,,0.05,WeatherDisplay:10.37,2013-11-10 04:09:00,
2013-11-09 22:14:00,64.8,60.5,30.16,ENE,67,2.3,2.3,86,0.00,CLR,,0.05,WeatherDisplay:10.37,2013-11-10 04:14:00,
2013-11-09 22:19:00,64.8,60.5,30.16,East,85,2.3,2.3,86,0.00,CLR,,0.05,WeatherDisplay:10.37,2013-11-10 04:19:00,
2013-11-09 22:24:00,64.8,60.5,30.16,NE,37,1.1,1.1,86,0.00,CLR,,0.05,WeatherDisplay:10.37,2013-11-10 04:24:00,
2013-11-09 22:29:00,64.7,60.4,30.16,NE,43,2.3,2.3,86,0.00,CLR,,0.05,WeatherDisplay:10.37,2013-11-10 04:29:00,
2013-11-09 22:34:00,64.6,60.3,30.16,NE,53,2.3,2.3,86,0.00,CLR,,0.05,WeatherDisplay:10.37,2013-11-10 04:34:00,
2013-11-09 22:39:00,64.7,60.4,30.16,NE,56,3.5,3.5,86,0.00,CLR,,0.05,WeatherDisplay:10.37,2013-11-10 04:39:00,
2013-11-09 22:44:00,64.6,60.3,30.17,ENE,67,2.3,2.3,86,0.00,CLR,,0.05,WeatherDisplay:10.37,2013-11-10 04:44:00,
2013-11-09 22:49:00,64.7,60.4,30.17,East,82,3.5,3.5,86,0.00,CLR,,0.05,WeatherDisplay:10.37,2013-11-10 04:49:00,
2013-11-09 22:54:00,64.7,60.7,30.17,ENE,77,2.3,2.3,87,0.00,CLR,,0.05,WeatherDisplay:10.37,2013-11-10 04:54:00,
2013-11-09 22:59:00,64.7,60.7,30.17,ENE,58,2.3,2.3,87,0.00,CLR,,0.05,WeatherDisplay:10.37,2013-11-10 04:59:00,
2013-11-09 23:01:00,64.6,60.6,30.17,ENE,70,1.1,1.1,87,0.00,CLR,,0.05,WeatherDisplay:10.37,2013-11-10 05:01:00,
2013-11-09 23:02:00,64.6,60.6,30.17,ENE,64,2.3,2.3,87,0.00,CLR,,0.05,WeatherDisplay:10.37,2013-11-10 05:02:00,
2013-11-09 23:07:00,64.6,60.6,30.17,ENE,72,0.0,0.6,87,0.00,CLR,,0.05,WeatherDisplay:10.37,2013-11-10 05:07:00,
2013-11-09 23:12:00,64.5,60.5,30.17,ENE,75,1.1,1.1,87,0.00,CLR,,0.05,WeatherDisplay:10.37,2013-11-10 05:12:00,
2013-11-09 23:18:00,64.5,60.5,30.17,ENE,64,1.1,1.1,87,0.00,CLR,,0.05,WeatherDisplay:10.37,2013-11-10 05:18:00,
2013-11-09 23:23:00,64.5,60.5,30.17,NE,47,0.0,0.0,87,0.00,CLR,,0.05,WeatherDisplay:10.37,2013-11-10 05:23:00,
2013-11-09 23:28:00,64.4,60.4,30.17,NE,36,0.0,0.0,87,0.00,CLR,,0.05,WeatherDisplay:10.37,2013-11-10 05:28:00,
2013-11-09 23:33:00,64.4,60.4,30.17,NE,36,2.3,2.3,87,0.00,CLR,,0.05,WeatherDisplay:10.37,2013-11-10 05:33:00,
2013-11-09 23:38:00,64.5,60.5,30.17,NE,49,2.3,2.3,87,0.00,CLR,,0.05,WeatherDisplay:10.37,2013-11-10 05:38:00,
2013-11-09 23:43:00,64.4,60.4,30.17,ENE,57,2.3,2.3,87,0.00,CLR,,0.05,WeatherDisplay:10.37,2013-11-10 05:43:00,
2013-11-09 23:48:00,64.3,60.3,30.17,ENE,70,1.1,1.1,87,0.00,CLR,,0.05,WeatherDisplay:10.37,2013-11-10 05:48:00,
2013-11-09 23:53:00,64.3,60.3,30.16,ENE,75,2.3,2.3,87,0.00,CLR,,0.05,WeatherDisplay:10.37,2013-11-10 05:53:00,
2013-11-09 23:58:00,64.3,60.3,30.16,ENE,77,2.3,2.3,87,0.00,CLR,,0.05,WeatherDisplay:10.37,2013-11-10 05:58:00,